sensor_id;sensor_type;location;lat;lon;timestamp;pressure;altitude;pressure_sealevel;temperature;humidity
72096;BME280;59968;51.084;16.748;2023-02-15T00:00:23;101910.36;;;4.86;62.61
72096;BME280;59968;51.084;16.748;2023-02-15T00:03:15;101908.36;;;4.83;62.68
72096;BME280;59968;51.084;16.748;2023-02-15T00:05:44;101912.06;;;4.80;62.73
72096;BME280;59968;51.084;16.748;2023-02-15T00:08:12;101910.33;;;4.80;62.73
72096;BME280;59968;51.084;16.748;2023-02-15T00:10:41;101908.39;;;4.81;62.83
72096;BME280;59968;51.084;16.748;2023-02-15T00:13:09;101909.05;;;4.81;62.84
72096;BME280;59968;51.084;16.748;2023-02-15T00:15:37;101907.69;;;4.83;62.84
72096;BME280;59968;51.084;16.748;2023-02-15T00:18:07;101902.54;;;4.85;62.75
72096;BME280;59968;51.084;16.748;2023-02-15T00:20:35;101900.27;;;4.86;62.74
72096;BME280;59968;51.084;16.748;2023-02-15T00:23:03;101898.07;;;4.88;62.73
72096;BME280;59968;51.084;16.748;2023-02-15T00:25:31;101894.55;;;4.89;62.62
72096;BME280;59968;51.084;16.748;2023-02-15T00:28:02;101892.25;;;4.90;62.51
72096;BME280;59968;51.084;16.748;2023-02-15T00:30:31;101890.52;;;4.90;62.44
72096;BME280;59968;51.084;16.748;2023-02-15T00:33:02;101884.92;;;4.89;62.42
72096;BME280;59968;51.084;16.748;2023-02-15T00:35:30;101885.72;;;4.86;62.50
72096;BME280;59968;51.084;16.748;2023-02-15T00:37:58;101878.94;;;4.85;62.52
72096;BME280;59968;51.084;16.748;2023-02-15T00:40:26;101876.06;;;4.84;62.60
72096;BME280;59968;51.084;16.748;2023-02-15T00:42:55;101872.16;;;4.84;62.47
72096;BME280;59968;51.084;16.748;2023-02-15T00:45:26;101871.69;;;4.81;62.56
72096;BME280;59968;51.084;16.748;2023-02-15T00:47:54;101876.63;;;4.77;62.60
72096;BME280;59968;51.084;16.748;2023-02-15T00:50:23;101877.02;;;4.72;62.58
72096;BME280;59968;51.084;16.748;2023-02-15T00:52:51;101881.36;;;4.68;62.67
72096;BME280;59968;51.084;16.748;2023-02-15T00:55:20;101885.23;;;4.65;62.74
72096;BME280;59968;51.084;16.748;2023-02-15T00:57:49;101885.44;;;4.62;62.76
72096;BME280;59968;51.084;16.748;2023-02-15T01:00:18;101882.64;;;4.58;62.68
72096;BME280;59968;51.084;16.748;2023-02-15T01:02:48;101877.55;;;4.55;62.78
72096;BME280;59968;51.084;16.748;2023-02-15T01:05:18;101877.42;;;4.54;62.92
72096;BME280;59968;51.084;16.748;2023-02-15T01:07:46;101879.97;;;4.54;63.08
72096;BME280;59968;51.084;16.748;2023-02-15T01:10:16;101875.12;;;4.53;63.17
72096;BME280;59968;51.084;16.748;2023-02-15T01:12:44;101875.55;;;4.54;63.16
72096;BME280;59968;51.084;16.748;2023-02-15T01:15:14;101872.42;;;4.55;63.15
72096;BME280;59968;51.084;16.748;2023-02-15T01:17:44;101871.69;;;4.55;63.11
72096;BME280;59968;51.084;16.748;2023-02-15T01:20:20;101866.48;;;4.54;63.14
72096;BME280;59968;51.084;16.748;2023-02-15T01:22:52;101869.15;;;4.52;63.23
72096;BME280;59968;51.084;16.748;2023-02-15T01:25:23;101868.24;;;4.53;63.31
72096;BME280;59968;51.084;16.748;2023-02-15T01:27:52;101865.27;;;4.54;63.35
72096;BME280;59968;51.084;16.748;2023-02-15T01:30:23;101864.91;;;4.54;63.34
72096;BME280;59968;51.084;16.748;2023-02-15T01:32:52;101860.51;;;4.53;63.33
72096;BME280;59968;51.084;16.748;2023-02-15T01:35:22;101856.64;;;4.53;63.30
72096;BME280;59968;51.084;16.748;2023-02-15T01:37:51;101853.71;;;4.53;63.31
72096;BME280;59968;51.084;16.748;2023-02-15T01:40:21;101849.23;;;4.51;63.25
72096;BME280;59968;51.084;16.748;2023-02-15T01:42:52;101844.02;;;4.47;63.33
72096;BME280;59968;51.084;16.748;2023-02-15T01:45:31;101838.45;;;4.46;63.29
72096;BME280;59968;51.084;16.748;2023-02-15T01:48:20;101833.10;;;4.49;63.04
72096;BME280;59968;51.084;16.748;2023-02-15T01:51:01;101824.77;;;4.44;62.85
72096;BME280;59968;51.084;16.748;2023-02-15T01:53:37;101826.94;;;4.37;62.92
72096;BME280;59968;51.084;16.748;2023-02-15T01:56:11;101825.73;;;4.35;62.91
72096;BME280;59968;51.084;16.748;2023-02-15T01:58:42;101826.89;;;4.32;62.95
72096;BME280;59968;51.084;16.748;2023-02-15T02:01:11;101826.30;;;4.28;62.93
72096;BME280;59968;51.084;16.748;2023-02-15T02:06:33;101824.91;;;4.26;63.03
72096;BME280;59968;51.084;16.748;2023-02-15T02:09:03;101817.98;;;4.24;63.10
72096;BME280;59968;51.084;16.748;2023-02-15T02:11:32;101811.02;;;4.26;63.13
72096;BME280;59968;51.084;16.748;2023-02-15T02:14:00;101800.98;;;4.25;63.30
72096;BME280;59968;51.084;16.748;2023-02-15T02:16:42;101794.09;;;4.26;63.43
72096;BME280;59968;51.084;16.748;2023-02-15T02:28:20;101777.52;;;4.18;63.75
72096;BME280;59968;51.084;16.748;2023-02-15T02:37:03;101772.20;;;4.16;63.69
72096;BME280;59968;51.084;16.748;2023-02-15T02:44:59;101775.11;;;4.19;63.58
72096;BME280;59968;51.084;16.748;2023-02-15T02:47:46;101776.15;;;4.18;63.48
72096;BME280;59968;51.084;16.748;2023-02-15T02:50:18;101773.25;;;4.18;63.32
72096;BME280;59968;51.084;16.748;2023-02-15T02:52:51;101770.34;;;4.18;63.24
72096;BME280;59968;51.084;16.748;2023-02-15T02:55:37;101768.31;;;4.18;63.30
72096;BME280;59968;51.084;16.748;2023-02-15T02:58:15;101764.15;;;4.16;63.33
72096;BME280;59968;51.084;16.748;2023-02-15T03:00:50;101761.69;;;4.12;63.47
72096;BME280;59968;51.084;16.748;2023-02-15T03:03:27;101767.09;;;4.11;63.38
72096;BME280;59968;51.084;16.748;2023-02-15T03:06:00;101766.96;;;4.13;63.33
72096;BME280;59968;51.084;16.748;2023-02-15T03:08:36;101762.77;;;4.12;63.28
72096;BME280;59968;51.084;16.748;2023-02-15T03:11:06;101764.13;;;4.12;63.52
72096;BME280;59968;51.084;16.748;2023-02-15T03:13:35;101767.91;;;4.10;63.54
72096;BME280;59968;51.084;16.748;2023-02-15T03:16:05;101767.19;;;4.07;63.64
72096;BME280;59968;51.084;16.748;2023-02-15T03:18:55;101768.55;;;4.08;63.59
72096;BME280;59968;51.084;16.748;2023-02-15T03:21:42;101767.03;;;4.08;63.58
72096;BME280;59968;51.084;16.748;2023-02-15T03:24:21;101768.48;;;4.04;63.65
72096;BME280;59968;51.084;16.748;2023-02-15T03:26:54;101766.75;;;4.02;63.74
72096;BME280;59968;51.084;16.748;2023-02-15T03:29:26;101764.02;;;4.02;63.75
72096;BME280;59968;51.084;16.748;2023-02-15T03:32:01;101761.61;;;4.00;63.72
72096;BME280;59968;51.084;16.748;2023-02-15T03:34:31;101757.31;;;3.98;63.54
72096;BME280;59968;51.084;16.748;2023-02-15T03:39:34;101740.65;;;3.86;63.70
72096;BME280;59968;51.084;16.748;2023-02-15T03:42:09;101751.45;;;3.93;63.55
72096;BME280;59968;51.084;16.748;2023-02-15T03:47:22;101745.89;;;3.90;63.49
72096;BME280;59968;51.084;16.748;2023-02-15T03:50:04;101743.58;;;3.86;63.59
72096;BME280;59968;51.084;16.748;2023-02-15T03:52:55;101742.14;;;3.85;63.60
72096;BME280;59968;51.084;16.748;2023-02-15T03:55:27;101733.19;;;3.86;63.44
72096;BME280;59968;51.084;16.748;2023-02-15T03:57:55;101734.93;;;3.83;63.29
72096;BME280;59968;51.084;16.748;2023-02-15T04:00:52;101736.64;;;3.74;63.10
72096;BME280;59968;51.084;16.748;2023-02-15T04:03:53;101734.86;;;3.70;63.06
72096;BME280;59968;51.084;16.748;2023-02-15T04:06:26;101731.09;;;3.65;63.39
72096;BME280;59968;51.084;16.748;2023-02-15T04:08:55;101731.23;;;3.59;63.66
72096;BME280;59968;51.084;16.748;2023-02-15T04:11:43;101729.83;;;3.54;63.85
72096;BME280;59968;51.084;16.748;2023-02-15T04:14:15;101729.05;;;3.53;63.87
72096;BME280;59968;51.084;16.748;2023-02-15T04:17:07;101728.16;;;3.56;63.92
72096;BME280;59968;51.084;16.748;2023-02-15T04:19:36;101733.00;;;3.55;64.14
72096;BME280;59968;51.084;16.748;2023-02-15T04:22:24;101731.77;;;3.54;64.19
72096;BME280;59968;51.084;16.748;2023-02-15T04:25:10;101736.66;;;3.52;64.20
72096;BME280;59968;51.084;16.748;2023-02-15T04:27:53;101725.11;;;3.44;64.30
72096;BME280;59968;51.084;16.748;2023-02-15T04:30:24;101731.34;;;3.48;64.18
72096;BME280;59968;51.084;16.748;2023-02-15T04:32:53;101731.40;;;3.47;64.18
72096;BME280;59968;51.084;16.748;2023-02-15T04:35:22;101727.23;;;3.46;64.14
72096;BME280;59968;51.084;16.748;2023-02-15T04:37:50;101723.61;;;3.44;64.10
72096;BME280;59968;51.084;16.748;2023-02-15T04:40:18;101720.36;;;3.41;64.15
72096;BME280;59968;51.084;16.748;2023-02-15T04:42:48;101718.09;;;3.40;64.34
72096;BME280;59968;51.084;16.748;2023-02-15T04:45:17;101714.84;;;3.37;64.49
72096;BME280;59968;51.084;16.748;2023-02-15T04:47:45;101717.04;;;3.35;64.61
72096;BME280;59968;51.084;16.748;2023-02-15T04:50:14;101712.77;;;3.33;64.72
72096;BME280;59968;51.084;16.748;2023-02-15T04:52:42;101711.40;;;3.33;64.85
72096;BME280;59968;51.084;16.748;2023-02-15T04:55:10;101712.96;;;3.32;64.68
72096;BME280;59968;51.084;16.748;2023-02-15T04:57:38;101713.75;;;3.31;64.56
72096;BME280;59968;51.084;16.748;2023-02-15T05:00:07;101713.95;;;3.30;64.48
72096;BME280;59968;51.084;16.748;2023-02-15T05:02:37;101714.94;;;3.31;64.64
72096;BME280;59968;51.084;16.748;2023-02-15T05:05:05;101717.05;;;3.32;64.59
72096;BME280;59968;51.084;16.748;2023-02-15T05:07:34;101716.95;;;3.34;64.41
72096;BME280;59968;51.084;16.748;2023-02-15T05:10:02;101715.83;;;3.35;64.36
72096;BME280;59968;51.084;16.748;2023-02-15T05:12:31;101715.06;;;3.36;64.46
72096;BME280;59968;51.084;16.748;2023-02-15T05:14:59;101713.77;;;3.38;64.53
72096;BME280;59968;51.084;16.748;2023-02-15T05:17:27;101710.32;;;3.38;64.50
72096;BME280;59968;51.084;16.748;2023-02-15T05:19:56;101713.20;;;3.41;64.54
72096;BME280;59968;51.084;16.748;2023-02-15T05:22:24;101707.95;;;3.42;64.57
72096;BME280;59968;51.084;16.748;2023-02-15T05:24:52;101704.98;;;3.43;64.69
72096;BME280;59968;51.084;16.748;2023-02-15T05:27:39;101710.92;;;3.44;64.67
72096;BME280;59968;51.084;16.748;2023-02-15T05:30:26;101711.02;;;3.43;64.77
72096;BME280;59968;51.084;16.748;2023-02-15T05:32:54;101712.96;;;3.42;64.76
72096;BME280;59968;51.084;16.748;2023-02-15T05:35:22;101711.50;;;3.41;64.74
72096;BME280;59968;51.084;16.748;2023-02-15T05:37:51;101710.91;;;3.40;64.65
72096;BME280;59968;51.084;16.748;2023-02-15T05:40:19;101706.62;;;3.40;64.68
72096;BME280;59968;51.084;16.748;2023-02-15T05:42:47;101703.27;;;3.38;64.52
72096;BME280;59968;51.084;16.748;2023-02-15T05:45:15;101703.09;;;3.36;64.53
72096;BME280;59968;51.084;16.748;2023-02-15T05:47:44;101701.52;;;3.35;64.55
72096;BME280;59968;51.084;16.748;2023-02-15T05:50:12;101698.35;;;3.33;64.46
72096;BME280;59968;51.084;16.748;2023-02-15T05:52:41;101698.00;;;3.31;64.48
72096;BME280;59968;51.084;16.748;2023-02-15T05:55:09;101701.42;;;3.31;64.38
72096;BME280;59968;51.084;16.748;2023-02-15T05:57:38;101694.11;;;3.25;64.26
72096;BME280;59968;51.084;16.748;2023-02-15T06:00:06;101702.11;;;3.28;64.35
72096;BME280;59968;51.084;16.748;2023-02-15T06:02:39;101699.67;;;3.27;64.15
72096;BME280;59968;51.084;16.748;2023-02-15T06:05:08;101701.79;;;3.26;64.30
72096;BME280;59968;51.084;16.748;2023-02-15T06:07:36;101706.30;;;3.22;64.20
72096;BME280;59968;51.084;16.748;2023-02-15T06:10:05;101708.27;;;3.18;64.28
72096;BME280;59968;51.084;16.748;2023-02-15T06:12:34;101704.70;;;3.13;64.30
72096;BME280;59968;51.084;16.748;2023-02-15T06:15:03;101707.84;;;3.13;64.47
72096;BME280;59968;51.084;16.748;2023-02-15T06:17:31;101708.88;;;3.12;64.30
72096;BME280;59968;51.084;16.748;2023-02-15T06:20:00;101707.60;;;3.13;64.33
72096;BME280;59968;51.084;16.748;2023-02-15T06:22:29;101705.89;;;3.14;64.33
72096;BME280;59968;51.084;16.748;2023-02-15T06:24:57;101705.98;;;3.15;64.39
72096;BME280;59968;51.084;16.748;2023-02-15T06:27:25;101707.77;;;3.16;64.34
72096;BME280;59968;51.084;16.748;2023-02-15T06:29:53;101713.05;;;3.14;64.36
72096;BME280;59968;51.084;16.748;2023-02-15T06:32:22;101712.20;;;3.12;64.34
72096;BME280;59968;51.084;16.748;2023-02-15T06:34:50;101714.05;;;3.12;64.50
72096;BME280;59968;51.084;16.748;2023-02-15T06:37:19;101715.96;;;3.14;64.61
72096;BME280;59968;51.084;16.748;2023-02-15T06:39:47;101718.77;;;3.18;64.55
72096;BME280;59968;51.084;16.748;2023-02-15T06:42:16;101718.74;;;3.20;64.59
72096;BME280;59968;51.084;16.748;2023-02-15T06:44:47;101719.63;;;3.22;64.73
72096;BME280;59968;51.084;16.748;2023-02-15T06:47:16;101718.23;;;3.25;64.77
72096;BME280;59968;51.084;16.748;2023-02-15T06:49:44;101716.19;;;3.30;64.94
72096;BME280;59968;51.084;16.748;2023-02-15T06:52:13;101715.70;;;3.35;65.06
72096;BME280;59968;51.084;16.748;2023-02-15T06:54:42;101715.23;;;3.41;65.12
72096;BME280;59968;51.084;16.748;2023-02-15T06:57:10;101715.08;;;3.48;65.10
72096;BME280;59968;51.084;16.748;2023-02-15T06:59:39;101715.56;;;3.55;65.11
72096;BME280;59968;51.084;16.748;2023-02-15T07:02:13;101716.85;;;3.63;65.17
72096;BME280;59968;51.084;16.748;2023-02-15T07:04:43;101710.19;;;3.71;65.12
72096;BME280;59968;51.084;16.748;2023-02-15T07:07:13;101711.36;;;3.76;65.04
72096;BME280;59968;51.084;16.748;2023-02-15T07:09:42;101712.92;;;3.77;65.17
72096;BME280;59968;51.084;16.748;2023-02-15T07:12:11;101710.47;;;3.81;65.22
72096;BME280;59968;51.084;16.748;2023-02-15T07:14:58;101708.46;;;3.84;65.36
72096;BME280;59968;51.084;16.748;2023-02-15T07:17:28;101702.91;;;3.90;65.26
72096;BME280;59968;51.084;16.748;2023-02-15T07:20:11;101702.27;;;3.94;65.24
72096;BME280;59968;51.084;16.748;2023-02-15T07:22:41;101696.50;;;3.98;65.31
72096;BME280;59968;51.084;16.748;2023-02-15T07:25:11;101695.05;;;4.02;65.36
72096;BME280;59968;51.084;16.748;2023-02-15T07:27:40;101692.38;;;4.06;65.33
72096;BME280;59968;51.084;16.748;2023-02-15T07:30:11;101695.00;;;4.09;65.43
72096;BME280;59968;51.084;16.748;2023-02-15T07:32:40;101686.50;;;4.13;65.38
72096;BME280;59968;51.084;16.748;2023-02-15T07:35:33;101680.27;;;4.18;65.53
72096;BME280;59968;51.084;16.748;2023-02-15T07:38:02;101676.88;;;4.25;65.61
72096;BME280;59968;51.084;16.748;2023-02-15T07:40:30;101670.63;;;4.30;65.55
72096;BME280;59968;51.084;16.748;2023-02-15T07:43:01;101670.28;;;4.37;65.68
72096;BME280;59968;51.084;16.748;2023-02-15T07:45:41;101665.79;;;4.47;65.60
72096;BME280;59968;51.084;16.748;2023-02-15T07:48:13;101667.48;;;4.58;65.62
72096;BME280;59968;51.084;16.748;2023-02-15T07:50:42;101661.13;;;4.65;65.38
72096;BME280;59968;51.084;16.748;2023-02-15T07:53:10;101659.26;;;4.69;65.32
72096;BME280;59968;51.084;16.748;2023-02-15T07:55:39;101657.52;;;4.74;65.54
72096;BME280;59968;51.084;16.748;2023-02-15T07:58:08;101659.67;;;4.79;65.47
72096;BME280;59968;51.084;16.748;2023-02-15T08:00:37;101659.23;;;4.87;65.45
72096;BME280;59968;51.084;16.748;2023-02-15T08:03:25;101655.48;;;4.97;65.41
72096;BME280;59968;51.084;16.748;2023-02-15T08:05:59;101655.89;;;5.05;65.30
72096;BME280;59968;51.084;16.748;2023-02-15T08:08:28;101653.36;;;5.13;65.08
72096;BME280;59968;51.084;16.748;2023-02-15T08:14:13;101645.07;;;5.31;64.99
72096;BME280;59968;51.084;16.748;2023-02-15T08:16:47;101641.63;;;5.42;64.80
72096;BME280;59968;51.084;16.748;2023-02-15T08:19:28;101639.20;;;5.52;64.78
72096;BME280;59968;51.084;16.748;2023-02-15T08:22:00;101628.77;;;5.58;64.66
72096;BME280;59968;51.084;16.748;2023-02-15T08:24:35;101632.52;;;5.71;64.22
72096;BME280;59968;51.084;16.748;2023-02-15T08:27:11;101624.73;;;5.78;63.95
72096;BME280;59968;51.084;16.748;2023-02-15T08:29:42;101625.34;;;5.86;63.83
72096;BME280;59968;51.084;16.748;2023-02-15T08:32:12;101629.69;;;5.94;63.65
72096;BME280;59968;51.084;16.748;2023-02-15T08:34:43;101627.73;;;5.98;63.60
72096;BME280;59968;51.084;16.748;2023-02-15T08:37:13;101629.33;;;6.06;63.43
72096;BME280;59968;51.084;16.748;2023-02-15T08:39:43;101635.69;;;6.14;63.62
72096;BME280;59968;51.084;16.748;2023-02-15T08:42:12;101629.20;;;6.22;63.50
72096;BME280;59968;51.084;16.748;2023-02-15T08:44:43;101627.02;;;6.27;63.43
72096;BME280;59968;51.084;16.748;2023-02-15T08:47:12;101626.46;;;6.35;63.23
72096;BME280;59968;51.084;16.748;2023-02-15T08:49:44;101626.19;;;6.43;62.76
72096;BME280;59968;51.084;16.748;2023-02-15T08:52:14;101622.10;;;6.44;62.65
72096;BME280;59968;51.084;16.748;2023-02-15T08:54:43;101623.82;;;6.48;62.69
72096;BME280;59968;51.084;16.748;2023-02-15T08:57:14;101622.29;;;6.52;62.79
72096;BME280;59968;51.084;16.748;2023-02-15T08:59:46;101624.77;;;6.57;62.72
72096;BME280;59968;51.084;16.748;2023-02-15T09:02:42;101625.52;;;6.63;62.28
72096;BME280;59968;51.084;16.748;2023-02-15T09:06:11;101619.30;;;6.71;62.21
72096;BME280;59968;51.084;16.748;2023-02-15T09:08:41;101616.35;;;6.73;62.12
72096;BME280;59968;51.084;16.748;2023-02-15T09:11:17;101614.02;;;6.74;62.03
72096;BME280;59968;51.084;16.748;2023-02-15T09:13:58;101610.20;;;6.76;62.15
72096;BME280;59968;51.084;16.748;2023-02-15T09:16:30;101606.39;;;6.83;62.15
72096;BME280;59968;51.084;16.748;2023-02-15T09:19:00;101605.73;;;6.92;61.77
72096;BME280;59968;51.084;16.748;2023-02-15T09:21:36;101606.93;;;6.98;61.81
72096;BME280;59968;51.084;16.748;2023-02-15T09:24:12;101607.51;;;7.05;61.72
72096;BME280;59968;51.084;16.748;2023-02-15T09:26:46;101603.38;;;7.07;61.42
72096;BME280;59968;51.084;16.748;2023-02-15T09:29:17;101604.96;;;7.06;61.21
72096;BME280;59968;51.084;16.748;2023-02-15T09:31:47;101602.05;;;7.06;61.22
72096;BME280;59968;51.084;16.748;2023-02-15T09:34:19;101606.56;;;7.08;61.26
72096;BME280;59968;51.084;16.748;2023-02-15T09:36:49;101602.73;;;7.14;61.18
72096;BME280;59968;51.084;16.748;2023-02-15T09:39:24;101600.86;;;7.20;61.21
72096;BME280;59968;51.084;16.748;2023-02-15T09:47:31;101597.11;;;7.39;60.61
72096;BME280;59968;51.084;16.748;2023-02-15T09:53:20;101589.74;;;7.42;60.54
72096;BME280;59968;51.084;16.748;2023-02-15T10:04:04;101575.11;;;7.74;60.06
72096;BME280;59968;51.084;16.748;2023-02-15T10:15:10;101562.20;;;7.98;59.35
72096;BME280;59968;51.084;16.748;2023-02-15T10:23:08;101557.04;;;8.11;59.71
72096;BME280;59968;51.084;16.748;2023-02-15T10:25:56;101554.42;;;8.18;59.81
72096;BME280;59968;51.084;16.748;2023-02-15T10:29:12;101551.44;;;8.21;59.54
72096;BME280;59968;51.084;16.748;2023-02-15T10:31:53;101551.38;;;8.25;59.34
72096;BME280;59968;51.084;16.748;2023-02-15T10:34:35;101554.56;;;8.30;59.50
72096;BME280;59968;51.084;16.748;2023-02-15T10:40:36;101549.19;;;8.41;59.47
72096;BME280;59968;51.084;16.748;2023-02-15T10:51:47;101536.94;;;8.81;58.60
72096;BME280;59968;51.084;16.748;2023-02-15T10:54:46;101532.50;;;8.91;57.84
72096;BME280;59968;51.084;16.748;2023-02-15T11:00:22;101523.13;;;9.02;57.24
72096;BME280;59968;51.084;16.748;2023-02-15T11:02:59;101517.71;;;9.01;57.13
72096;BME280;59968;51.084;16.748;2023-02-15T11:05:35;101517.08;;;9.02;57.14
72096;BME280;59968;51.084;16.748;2023-02-15T11:08:09;101517.19;;;9.03;56.87
72096;BME280;59968;51.084;16.748;2023-02-15T11:10:47;101514.09;;;9.06;57.07
72096;BME280;59968;51.084;16.748;2023-02-15T11:13:22;101512.35;;;9.09;56.86
72096;BME280;59968;51.084;16.748;2023-02-15T11:15:56;101504.48;;;9.14;56.79
72096;BME280;59968;51.084;16.748;2023-02-15T11:18:40;101500.06;;;9.19;56.67
72096;BME280;59968;51.084;16.748;2023-02-15T11:21:21;101494.96;;;9.25;56.66
72096;BME280;59968;51.084;16.748;2023-02-15T11:23:51;101492.62;;;9.31;56.39
72096;BME280;59968;51.084;16.748;2023-02-15T11:26:43;101491.36;;;9.39;56.53
72096;BME280;59968;51.084;16.748;2023-02-15T11:29:31;101485.50;;;9.47;56.08
72096;BME280;59968;51.084;16.748;2023-02-15T11:32:11;101486.55;;;9.55;56.04
72096;BME280;59968;51.084;16.748;2023-02-15T11:40:27;101480.18;;;9.77;56.22
72096;BME280;59968;51.084;16.748;2023-02-15T11:43:00;101469.69;;;9.85;56.10
72096;BME280;59968;51.084;16.748;2023-02-15T11:45:32;101467.75;;;9.94;56.49
72096;BME280;59968;51.084;16.748;2023-02-15T11:48:09;101464.61;;;10.03;56.46
72096;BME280;59968;51.084;16.748;2023-02-15T11:50:39;101460.63;;;10.11;55.79
72096;BME280;59968;51.084;16.748;2023-02-15T11:53:18;101451.77;;;10.15;55.68
72096;BME280;59968;51.084;16.748;2023-02-15T11:55:49;101441.98;;;10.21;55.58
72096;BME280;59968;51.084;16.748;2023-02-15T11:58:40;101442.15;;;10.28;55.55
72096;BME280;59968;51.084;16.748;2023-02-15T12:03:47;101427.78;;;10.44;55.43
72096;BME280;59968;51.084;16.748;2023-02-15T12:06:27;101427.00;;;10.50;55.20
72096;BME280;59968;51.084;16.748;2023-02-15T12:09:24;101423.48;;;10.56;54.93
72096;BME280;59968;51.084;16.748;2023-02-15T12:12:21;101419.79;;;10.61;55.10
72096;BME280;59968;51.084;16.748;2023-02-15T12:14:57;101414.76;;;10.66;55.27
72096;BME280;59968;51.084;16.748;2023-02-15T12:17:29;101414.50;;;10.70;55.16
72096;BME280;59968;51.084;16.748;2023-02-15T12:20:02;101410.83;;;10.73;55.29
72096;BME280;59968;51.084;16.748;2023-02-15T12:22:33;101407.52;;;10.80;55.21
72096;BME280;59968;51.084;16.748;2023-02-15T12:27:48;101408.35;;;10.94;55.15
72096;BME280;59968;51.084;16.748;2023-02-15T12:32:56;101418.36;;;11.11;54.98
72096;BME280;59968;51.084;16.748;2023-02-15T12:35:32;101415.63;;;11.17;54.90
72096;BME280;59968;51.084;16.748;2023-02-15T12:40:39;101408.30;;;11.27;54.30
72096;BME280;59968;51.084;16.748;2023-02-15T12:43:31;101409.55;;;11.30;53.93
72096;BME280;59968;51.084;16.748;2023-02-15T12:46:23;101403.11;;;11.35;53.90
72096;BME280;59968;51.084;16.748;2023-02-15T12:49:19;101397.90;;;11.38;53.88
72096;BME280;59968;51.084;16.748;2023-02-15T12:51:51;101390.73;;;11.43;53.81
72096;BME280;59968;51.084;16.748;2023-02-15T12:59:56;101383.20;;;11.58;52.80
72096;BME280;59968;51.084;16.748;2023-02-15T13:05:18;101374.97;;;11.63;52.63
72096;BME280;59968;51.084;16.748;2023-02-15T13:07:51;101376.01;;;11.65;52.19
72096;BME280;59968;51.084;16.748;2023-02-15T13:10:31;101367.56;;;11.68;52.37
72096;BME280;59968;51.084;16.748;2023-02-15T13:13:09;101369.18;;;11.70;52.29
72096;BME280;59968;51.084;16.748;2023-02-15T13:15:40;101366.05;;;11.74;52.35
72096;BME280;59968;51.084;16.748;2023-02-15T13:18:15;101362.10;;;11.72;52.27
72096;BME280;59968;51.084;16.748;2023-02-15T13:20:46;101357.33;;;11.49;52.90
72096;BME280;59968;51.084;16.748;2023-02-15T13:23:34;101355.02;;;11.44;52.91
72096;BME280;59968;51.084;16.748;2023-02-15T13:26:05;101355.77;;;11.41;52.97
72096;BME280;59968;51.084;16.748;2023-02-15T13:28:42;101358.17;;;11.43;53.15
72096;BME280;59968;51.084;16.748;2023-02-15T13:31:14;101358.96;;;11.47;53.34
72096;BME280;59968;51.084;16.748;2023-02-15T13:33:48;101363.25;;;11.49;53.20
72096;BME280;59968;51.084;16.748;2023-02-15T13:42:29;101359.54;;;11.70;53.63
72096;BME280;59968;51.084;16.748;2023-02-15T14:03:02;101343.38;;;11.72;53.39
72096;BME280;59968;51.084;16.748;2023-02-15T14:05:49;101339.98;;;11.74;53.32
72096;BME280;59968;51.084;16.748;2023-02-15T14:11:22;101333.97;;;11.75;53.30
72096;BME280;59968;51.084;16.748;2023-02-15T14:17:03;101328.41;;;11.77;53.41
72096;BME280;59968;51.084;16.748;2023-02-15T14:19:46;101330.11;;;11.76;53.15
72096;BME280;59968;51.084;16.748;2023-02-15T14:22:41;101323.95;;;11.67;52.64
72096;BME280;59968;51.084;16.748;2023-02-15T14:25:18;101323.34;;;11.66;52.68
72096;BME280;59968;51.084;16.748;2023-02-15T14:30:26;101323.95;;;11.63;52.45
72096;BME280;59968;51.084;16.748;2023-02-15T14:33:04;101324.52;;;11.61;52.47
72096;BME280;59968;51.084;16.748;2023-02-15T14:35:34;101323.88;;;11.62;52.35
72096;BME280;59968;51.084;16.748;2023-02-15T14:41:01;101323.09;;;11.65;52.53
72096;BME280;59968;51.084;16.748;2023-02-15T14:49:14;101315.77;;;11.66;52.78
72096;BME280;59968;51.084;16.748;2023-02-15T14:51:54;101315.96;;;11.66;52.90
72096;BME280;59968;51.084;16.748;2023-02-15T15:04:39;101311.48;;;11.55;51.71
72096;BME280;59968;51.084;16.748;2023-02-15T15:07:24;101310.13;;;11.55;51.82
72096;BME280;59968;51.084;16.748;2023-02-15T15:15:03;101312.20;;;11.54;52.67
72096;BME280;59968;51.084;16.748;2023-02-15T15:22:44;101307.89;;;11.48;53.18
72096;BME280;59968;51.084;16.748;2023-02-15T15:28:06;101309.17;;;11.43;53.36
72096;BME280;59968;51.084;16.748;2023-02-15T15:33:36;101300.95;;;11.38;53.56
72096;BME280;59968;51.084;16.748;2023-02-15T15:41:47;101296.19;;;11.23;53.46
72096;BME280;59968;51.084;16.748;2023-02-15T15:50:11;101293.94;;;11.06;53.60
72096;BME280;59968;51.084;16.748;2023-02-15T15:52:46;101293.34;;;11.00;53.76
72096;BME280;59968;51.084;16.748;2023-02-15T15:55:23;101292.98;;;10.92;54.14
72096;BME280;59968;51.084;16.748;2023-02-15T15:57:57;101294.27;;;10.86;54.64
72096;BME280;59968;51.084;16.748;2023-02-15T16:00:44;101292.98;;;10.78;55.21
72096;BME280;59968;51.084;16.748;2023-02-15T16:05:50;101291.15;;;10.61;55.96
72096;BME280;59968;51.084;16.748;2023-02-15T16:10:56;101284.73;;;10.46;56.57
72096;BME280;59968;51.084;16.748;2023-02-15T16:13:25;101284.01;;;10.40;56.82
72096;BME280;59968;51.084;16.748;2023-02-15T16:15:56;101282.49;;;10.31;56.96
72096;BME280;59968;51.084;16.748;2023-02-15T16:18:26;101283.31;;;10.24;57.19
72096;BME280;59968;51.084;16.748;2023-02-15T16:21:00;101284.27;;;10.18;57.41
72096;BME280;59968;51.084;16.748;2023-02-15T16:28:53;101283.56;;;9.94;57.93
72096;BME280;59968;51.084;16.748;2023-02-15T16:31:22;101286.60;;;9.87;58.01
72096;BME280;59968;51.084;16.748;2023-02-15T16:33:54;101286.10;;;9.78;58.25